createdAt,value
2023-03-10T00:03:49.383Z,14.20
2023-03-10T00:06:21.315Z,16.27
2023-03-10T00:08:49.096Z,15.90
2023-03-10T00:11:16.589Z,16.08
2023-03-10T00:13:44.230Z,14.90
2023-03-10T00:16:27.106Z,16.70
2023-03-10T00:18:54.739Z,15.48
2023-03-10T00:21:26.280Z,15.05
2023-03-10T00:23:54.047Z,15.38
2023-03-10T00:26:23.117Z,15.50
2023-03-10T00:28:50.902Z,15.68
2023-03-10T00:31:23.081Z,17.73
2023-03-10T00:33:52.068Z,16.55
2023-03-10T00:36:25.847Z,16.08
2023-03-10T00:38:54.531Z,15.25
2023-03-10T00:41:25.069Z,16.45
2023-03-10T00:43:52.799Z,16.02
2023-03-10T00:46:20.163Z,16.58
2023-03-10T00:48:47.598Z,16.30
2023-03-10T00:51:15.275Z,15.02
2023-03-10T00:53:42.896Z,15.18
2023-03-10T00:56:25.688Z,14.48
2023-03-10T00:58:56.121Z,15.85
2023-03-10T01:01:27.482Z,15.73
2023-03-10T01:03:57.909Z,13.90
2023-03-10T01:06:26.091Z,14.98
2023-03-10T01:08:53.665Z,14.80
2023-03-10T01:11:25.436Z,14.52
2023-03-10T01:13:53.221Z,15.27
2023-03-10T01:16:20.296Z,13.85
2023-03-10T01:18:48.089Z,14.13
2023-03-10T01:21:25.017Z,14.02
2023-03-10T01:23:52.445Z,13.60
2023-03-10T01:26:19.723Z,13.35
2023-03-10T01:28:48.981Z,14.57
2023-03-10T01:31:18.181Z,13.20
2023-03-10T01:33:46.585Z,12.55
2023-03-10T01:36:21.906Z,13.80
2023-03-10T01:38:49.550Z,13.73
2023-03-10T01:41:18.010Z,14.23
2023-03-10T01:43:48.597Z,13.90
2023-03-10T01:46:42.981Z,13.38
2023-03-10T01:49:44.890Z,13.73
2023-03-10T01:52:20.896Z,14.57
2023-03-10T01:54:57.321Z,14.40
2023-03-10T01:59:56.875Z,11.45
2023-03-10T02:02:25.865Z,12.88
2023-03-10T02:04:54.645Z,13.10
2023-03-10T02:07:26.962Z,13.35
2023-03-10T02:09:56.209Z,13.57
2023-03-10T02:12:23.464Z,13.85
2023-03-10T02:14:52.937Z,13.02
2023-03-10T02:17:23.407Z,13.63
2023-03-10T02:20:12.110Z,13.55
2023-03-10T02:22:40.098Z,13.68
2023-03-10T02:25:22.527Z,14.00
2023-03-10T02:27:49.978Z,12.98
2023-03-10T02:30:25.019Z,13.07
2023-03-10T02:32:57.888Z,12.93
2023-03-10T02:35:25.271Z,13.48
2023-03-10T02:37:56.669Z,12.60
2023-03-10T02:40:38.000Z,13.20
2023-03-10T02:43:20.507Z,12.68
2023-03-10T02:45:52.201Z,12.48
2023-03-10T02:48:31.282Z,12.32
2023-03-10T02:51:02.372Z,12.10
2023-03-10T02:53:30.493Z,12.23
2023-03-10T02:55:58.523Z,11.75
2023-03-10T02:58:29.970Z,12.10
2023-03-10T03:00:57.815Z,11.85
2023-03-10T03:03:25.285Z,11.48
2023-03-10T03:05:53.018Z,10.70
2023-03-10T03:08:20.989Z,11.73
2023-03-10T03:10:48.188Z,12.18
2023-03-10T03:13:15.681Z,11.85
2023-03-10T03:15:42.963Z,11.05
2023-03-10T03:18:11.186Z,10.45
2023-03-10T03:20:41.023Z,11.35
2023-03-10T03:23:08.755Z,11.60
2023-03-10T03:25:39.103Z,10.23
2023-03-10T03:28:09.796Z,10.75
2023-03-10T03:30:38.086Z,10.05
2023-03-10T03:33:07.206Z,9.68
2023-03-10T03:35:37.365Z,9.70
2023-03-10T03:38:06.422Z,10.68
2023-03-10T03:40:36.385Z,10.30
2023-03-10T03:43:05.620Z,9.65
2023-03-10T03:45:34.268Z,10.00
2023-03-10T03:48:02.083Z,9.15
2023-03-10T03:50:31.895Z,9.10
2023-03-10T03:53:05.841Z,9.73
2023-03-10T03:55:33.969Z,9.43
2023-03-10T03:58:01.282Z,9.55
2023-03-10T04:00:28.387Z,10.15
2023-03-10T04:03:02.263Z,9.02
2023-03-10T04:05:30.839Z,10.30
2023-03-10T04:07:58.233Z,8.82
2023-03-10T04:10:28.549Z,8.60
2023-03-10T04:12:56.207Z,8.77
2023-03-10T04:15:24.776Z,8.13
2023-03-10T04:17:51.902Z,8.57
2023-03-10T04:20:19.086Z,8.85
2023-03-10T04:22:49.723Z,8.73
2023-03-10T04:25:18.595Z,8.68
2023-03-10T04:27:46.285Z,8.32
2023-03-10T04:30:15.039Z,9.48
2023-03-10T04:32:47.928Z,8.15
2023-03-10T04:35:16.841Z,8.40
2023-03-10T04:37:44.862Z,7.75
2023-03-10T04:40:15.029Z,8.07
2023-03-10T04:42:42.928Z,8.18
2023-03-10T04:45:11.596Z,8.40
2023-03-10T04:47:40.626Z,8.63
2023-03-10T04:50:08.457Z,7.82
2023-03-10T04:52:35.425Z,8.02
2023-03-10T04:55:02.603Z,8.82
2023-03-10T04:57:30.077Z,8.10
2023-03-10T04:59:57.245Z,9.23
2023-03-10T05:02:24.454Z,8.02
2023-03-10T05:04:52.081Z,8.02
2023-03-10T05:07:21.310Z,8.73
2023-03-10T05:09:49.923Z,8.63
2023-03-10T05:12:17.281Z,8.10
2023-03-10T05:14:44.431Z,7.90
2023-03-10T05:17:12.502Z,7.90
2023-03-10T05:19:39.830Z,8.38
2023-03-10T05:22:08.235Z,8.02
2023-03-10T05:24:37.092Z,8.48
2023-03-10T05:27:04.474Z,8.27
2023-03-10T05:29:32.372Z,8.25
2023-03-10T05:32:07.699Z,8.80
2023-03-10T05:34:38.592Z,8.25
2023-03-10T05:37:06.087Z,8.55
2023-03-10T05:39:33.699Z,8.88
2023-03-10T05:42:04.505Z,8.77
2023-03-10T05:44:34.152Z,8.63
2023-03-10T05:47:02.856Z,9.02
2023-03-10T05:49:30.803Z,8.07
2023-03-10T05:51:59.117Z,8.15
2023-03-10T05:54:26.445Z,8.23
2023-03-10T05:56:53.481Z,7.68
2023-03-10T05:59:23.175Z,7.55
2023-03-10T06:01:52.037Z,7.80
2023-03-10T06:04:19.164Z,8.70
2023-03-10T06:06:48.803Z,7.82
2023-03-10T06:09:15.853Z,7.35
2023-03-10T06:11:42.891Z,7.80
2023-03-10T06:14:10.145Z,7.40
2023-03-10T06:16:37.325Z,7.03
2023-03-10T06:19:04.427Z,7.28
2023-03-10T06:21:31.531Z,7.75
2023-03-10T06:23:59.279Z,7.55
2023-03-10T06:26:26.540Z,7.63
2023-03-10T06:28:53.344Z,8.13
2023-03-10T06:31:24.418Z,7.47
2023-03-10T06:33:52.603Z,7.72
2023-03-10T06:36:20.794Z,7.70
2023-03-10T06:38:48.466Z,7.30
2023-03-10T06:41:16.612Z,7.18
2023-03-10T06:43:43.549Z,7.68
2023-03-10T06:46:11.933Z,8.05
2023-03-10T06:48:40.907Z,7.50
2023-03-10T06:51:11.585Z,7.32
2023-03-10T06:53:38.786Z,7.82
2023-03-10T06:56:28.423Z,8.20
2023-03-10T06:58:55.947Z,7.97
2023-03-10T07:01:26.365Z,7.70
2023-03-10T07:03:54.929Z,8.38
2023-03-10T07:06:23.480Z,8.38
2023-03-10T07:08:51.265Z,7.80
2023-03-10T07:11:19.016Z,8.15
2023-03-10T07:13:46.139Z,7.70
2023-03-10T07:16:14.199Z,7.43
2023-03-10T07:18:41.835Z,7.45
2023-03-10T07:21:17.905Z,7.50
2023-03-10T07:23:46.444Z,7.88
2023-03-10T07:26:16.081Z,7.15
2023-03-10T07:28:43.082Z,7.75
2023-03-10T07:31:14.142Z,7.82
2023-03-10T07:33:41.139Z,7.50
2023-03-10T07:36:15.413Z,7.47
2023-03-10T07:38:42.341Z,6.90
2023-03-10T07:41:13.566Z,7.40
2023-03-10T07:43:40.599Z,7.82
2023-03-10T07:46:11.267Z,8.40
2023-03-10T07:48:39.614Z,7.65
2023-03-10T07:51:07.573Z,7.47
2023-03-10T07:53:34.844Z,7.30
2023-03-10T07:56:11.395Z,6.65
2023-03-10T07:58:39.686Z,6.53
2023-03-10T08:01:18.083Z,7.10
2023-03-10T08:03:47.789Z,6.85
2023-03-10T08:06:35.882Z,7.20
2023-03-10T08:09:04.074Z,6.22
2023-03-10T08:11:31.750Z,7.13
2023-03-10T08:13:59.288Z,6.97
2023-03-10T08:16:26.825Z,6.63
2023-03-10T08:18:54.879Z,6.88
2023-03-10T08:21:22.357Z,6.75
2023-03-10T08:23:51.036Z,6.32
2023-03-10T08:26:19.908Z,7.63
2023-03-10T08:28:48.248Z,7.05
2023-03-10T08:31:20.988Z,6.82
2023-03-10T08:33:49.560Z,7.45
2023-03-10T08:36:20.596Z,6.90
2023-03-10T08:38:50.077Z,8.32
2023-03-10T08:41:25.932Z,7.93
2023-03-10T08:43:55.390Z,7.80
2023-03-10T08:46:25.060Z,6.80
2023-03-10T08:48:52.221Z,8.10
2023-03-10T08:51:20.138Z,7.25
2023-03-10T08:53:49.890Z,7.57
2023-03-10T08:56:21.311Z,9.00
2023-03-10T08:58:49.732Z,8.05
2023-03-10T09:01:18.185Z,8.20
2023-03-10T09:03:46.297Z,8.20
2023-03-10T09:06:14.735Z,7.97
2023-03-10T09:08:42.657Z,7.95
2023-03-10T09:11:16.355Z,8.05
2023-03-10T09:13:44.008Z,8.65
2023-03-10T09:16:13.473Z,8.38
2023-03-10T09:18:41.392Z,8.40
2023-03-10T09:21:11.287Z,8.48
2023-03-10T09:23:41.367Z,8.38
2023-03-10T09:26:08.917Z,8.38
2023-03-10T09:28:36.641Z,7.50
2023-03-10T09:31:06.069Z,8.88
2023-03-10T09:33:34.093Z,8.38
2023-03-10T09:36:06.920Z,7.57
2023-03-10T09:38:36.096Z,8.63
2023-03-10T09:41:22.738Z,7.63
2023-03-10T09:44:02.956Z,7.15
2023-03-10T09:47:05.691Z,8.50
2023-03-10T09:49:40.251Z,7.65
2023-03-10T09:52:42.013Z,7.70
2023-03-10T09:55:28.697Z,7.63
2023-03-10T09:57:57.456Z,8.80
2023-03-10T10:00:33.544Z,9.20
2023-03-10T10:03:23.553Z,8.50
2023-03-10T10:05:53.453Z,8.35
2023-03-10T10:08:29.296Z,8.25
2023-03-10T10:10:59.594Z,8.23
2023-03-10T10:13:30.466Z,7.82
2023-03-10T10:16:33.608Z,7.93
2023-03-10T10:19:21.494Z,8.32
2023-03-10T10:24:21.076Z,6.85
2023-03-10T10:26:48.238Z,8.43
2023-03-10T10:29:29.689Z,8.13
2023-03-10T10:32:06.955Z,8.13
2023-03-10T10:34:34.683Z,7.78
2023-03-10T10:37:01.900Z,8.52
2023-03-10T10:39:43.115Z,7.82
2023-03-10T10:42:24.200Z,9.07
2023-03-10T10:45:04.620Z,8.57
2023-03-10T10:47:47.348Z,9.35
2023-03-10T10:50:18.691Z,8.45
2023-03-10T10:52:51.623Z,8.93
2023-03-10T10:55:29.686Z,9.60
2023-03-10T10:58:01.812Z,9.43
2023-03-10T11:00:30.793Z,9.45
2023-03-10T11:02:58.094Z,9.38
2023-03-10T11:05:35.821Z,8.07
2023-03-10T11:08:18.908Z,8.07
2023-03-10T11:11:02.124Z,8.73
2023-03-10T11:16:53.222Z,7.85
2023-03-10T11:19:32.062Z,8.77
2023-03-10T11:22:33.962Z,9.30
2023-03-10T11:25:21.838Z,8.73
2023-03-10T11:28:01.969Z,8.23
2023-03-10T11:30:38.198Z,8.98
2023-03-10T11:33:16.995Z,9.10
2023-03-10T11:35:54.616Z,9.20
2023-03-10T11:38:37.673Z,8.73
2023-03-10T11:41:24.613Z,7.70
2023-03-10T11:44:31.824Z,8.82
2023-03-10T11:47:06.812Z,8.57
2023-03-10T11:49:41.660Z,8.02
2023-03-10T11:52:19.364Z,8.23
2023-03-10T11:55:07.327Z,9.02
2023-03-10T11:57:45.782Z,7.97
2023-03-10T12:00:26.029Z,7.88
2023-03-10T12:03:36.174Z,8.40
2023-03-10T12:06:04.964Z,7.38
2023-03-10T12:08:35.078Z,8.27
2023-03-10T12:11:06.619Z,7.63
2023-03-10T12:13:48.196Z,6.95
2023-03-10T12:16:20.926Z,6.70
2023-03-10T12:18:48.187Z,6.78
2023-03-10T12:21:20.908Z,6.70
2023-03-10T12:23:53.817Z,6.55
2023-03-10T12:26:39.230Z,6.82
2023-03-10T12:29:24.544Z,6.80
2023-03-10T12:31:53.934Z,6.22
2023-03-10T12:34:31.517Z,7.25
2023-03-10T12:37:11.308Z,7.05
2023-03-10T12:39:45.949Z,7.32
2023-03-10T12:42:33.069Z,6.95
2023-03-10T12:48:19.702Z,5.90
2023-03-10T12:50:56.108Z,5.00
2023-03-10T12:53:38.722Z,4.97
2023-03-10T12:56:16.608Z,4.30
2023-03-10T12:59:05.272Z,4.03
2023-03-10T13:01:43.246Z,3.08
2023-03-10T13:04:20.322Z,3.08
2023-03-10T13:06:49.036Z,3.40
2023-03-10T13:09:26.435Z,4.63
2023-03-10T13:12:07.740Z,5.45
2023-03-10T13:14:39.396Z,5.25
2023-03-10T13:17:30.536Z,5.95
2023-03-10T13:20:11.713Z,4.57
2023-03-10T13:22:39.197Z,4.45
2023-03-10T13:25:12.474Z,3.97
2023-03-10T13:27:39.590Z,3.90
2023-03-10T13:30:26.682Z,3.72
2023-03-10T13:35:36.684Z,3.47
2023-03-10T13:38:16.617Z,2.83
2023-03-10T13:40:48.660Z,2.72
2023-03-10T13:43:41.774Z,2.75
2023-03-10T13:46:19.110Z,2.60
2023-03-10T13:48:49.928Z,2.50
2023-03-10T13:51:32.251Z,2.67
2023-03-10T13:54:32.624Z,2.70
2023-03-10T13:57:25.421Z,2.75
2023-03-10T13:59:55.005Z,2.90
2023-03-10T14:02:35.953Z,2.50
2023-03-10T14:05:06.768Z,2.97
2023-03-10T14:07:37.467Z,2.78
2023-03-10T14:10:04.410Z,2.58
2023-03-10T14:12:37.554Z,2.92
2023-03-10T14:15:19.374Z,3.30
2023-03-10T14:17:50.264Z,3.28
2023-03-10T14:20:45.209Z,3.95
2023-03-10T14:23:26.242Z,3.47
2023-03-10T14:25:56.340Z,3.55
2023-03-10T14:28:30.659Z,3.85
2023-03-10T14:31:02.569Z,3.08
2023-03-10T14:33:29.609Z,4.43
2023-03-10T14:35:57.295Z,6.55
2023-03-10T14:38:24.364Z,4.47
2023-03-10T14:40:53.702Z,3.63
2023-03-10T14:43:26.755Z,4.18
2023-03-10T14:45:57.646Z,3.72
2023-03-10T14:48:27.907Z,3.78
2023-03-10T14:50:56.908Z,4.30
2023-03-10T14:53:27.041Z,3.67
2023-03-10T14:55:56.468Z,3.80
2023-03-10T14:58:28.992Z,3.58
2023-03-10T15:00:56.105Z,3.97
2023-03-10T15:03:22.991Z,3.70
2023-03-10T15:05:49.915Z,4.25
2023-03-10T15:08:17.882Z,5.70
2023-03-10T15:10:49.699Z,4.75
2023-03-10T15:13:22.948Z,4.40
2023-03-10T15:15:50.653Z,4.45
2023-03-10T15:18:21.763Z,3.88
2023-03-10T15:20:49.454Z,3.95
2023-03-10T15:23:20.077Z,3.72
2023-03-10T15:25:47.979Z,3.97
2023-03-10T15:28:15.263Z,4.13
2023-03-10T15:30:42.402Z,4.00
2023-03-10T15:33:10.761Z,4.18
2023-03-10T15:35:39.064Z,4.05
2023-03-10T15:38:06.148Z,3.80
2023-03-10T15:40:34.848Z,4.50
2023-03-10T15:43:01.928Z,4.40
2023-03-10T15:45:30.851Z,4.70
2023-03-10T15:47:58.497Z,4.47
2023-03-10T15:50:26.195Z,4.70
2023-03-10T15:52:56.342Z,5.47
2023-03-10T15:55:25.009Z,5.18
2023-03-10T15:57:52.936Z,6.57
2023-03-10T16:00:23.116Z,6.90
2023-03-10T16:02:51.223Z,6.55
2023-03-10T16:05:19.496Z,7.20
2023-03-10T16:07:46.643Z,6.93
2023-03-10T16:10:17.717Z,8.07
2023-03-10T16:12:44.798Z,8.18
2023-03-10T16:15:13.703Z,7.95
2023-03-10T16:17:41.906Z,8.02
2023-03-10T16:20:12.649Z,8.77
2023-03-10T16:22:42.741Z,7.35
2023-03-10T16:25:18.193Z,7.18
2023-03-10T16:27:46.053Z,6.75
2023-03-10T16:30:18.483Z,6.57
2023-03-10T16:32:47.819Z,7.32
2023-03-10T16:35:16.188Z,7.07
2023-03-10T16:37:43.641Z,7.03
2023-03-10T16:40:11.641Z,7.10
2023-03-10T16:42:38.897Z,7.32
2023-03-10T16:45:07.359Z,7.18
2023-03-10T16:47:34.348Z,7.43
2023-03-10T16:50:01.437Z,7.90
2023-03-10T16:52:28.362Z,8.18
2023-03-10T16:55:01.722Z,7.53
2023-03-10T16:57:28.672Z,9.32
2023-03-10T16:59:55.659Z,9.25
2023-03-10T17:02:22.547Z,9.73
2023-03-10T17:04:49.645Z,9.43
2023-03-10T17:07:16.873Z,9.75
2023-03-10T17:09:45.620Z,11.25
2023-03-10T17:12:12.683Z,9.77
2023-03-10T17:14:39.844Z,9.75
2023-03-10T17:17:08.101Z,11.23
2023-03-10T17:19:35.454Z,10.35
2023-03-10T17:22:02.663Z,10.23
2023-03-10T17:24:29.614Z,11.30
2023-03-10T17:26:56.581Z,10.05
2023-03-10T17:29:23.525Z,10.55
2023-03-10T17:31:51.745Z,10.60
2023-03-10T17:34:19.686Z,9.80
2023-03-10T17:36:50.675Z,9.23
2023-03-10T17:39:21.456Z,12.05
2023-03-10T17:41:49.155Z,9.88
2023-03-10T17:44:16.855Z,11.07
2023-03-10T17:46:45.367Z,10.75
2023-03-10T17:49:14.526Z,11.35
2023-03-10T17:51:44.164Z,10.07
2023-03-10T17:54:20.166Z,10.40
2023-03-10T17:56:47.702Z,13.35
2023-03-10T17:59:16.128Z,12.07
2023-03-10T18:01:44.639Z,11.65
2023-03-10T18:04:12.206Z,12.40
2023-03-10T18:06:39.378Z,11.65
2023-03-10T18:09:12.355Z,13.10
2023-03-10T18:11:39.710Z,12.75
2023-03-10T18:14:07.150Z,12.43
2023-03-10T18:16:39.026Z,14.93
2023-03-10T18:19:10.478Z,12.63
2023-03-10T18:21:38.164Z,11.75
2023-03-10T18:24:06.471Z,14.23
2023-03-10T18:26:33.787Z,13.30
2023-03-10T18:29:01.121Z,13.88
2023-03-10T18:31:31.925Z,13.20
2023-03-10T18:33:59.764Z,12.35
2023-03-10T18:36:27.477Z,12.73
2023-03-10T18:38:54.989Z,15.32
2023-03-10T18:41:29.545Z,12.55
2023-03-10T18:43:57.210Z,12.00
2023-03-10T18:46:24.338Z,11.90
2023-03-10T18:48:55.899Z,12.20
2023-03-10T18:51:25.493Z,10.60
2023-03-10T18:53:52.601Z,15.30
2023-03-10T18:56:19.730Z,12.27
2023-03-10T18:58:46.786Z,11.35
2023-03-10T19:01:14.953Z,12.23
2023-03-10T19:03:42.416Z,10.57
2023-03-10T19:06:09.658Z,14.00
2023-03-10T19:08:38.938Z,10.90
2023-03-10T19:11:07.036Z,9.73
2023-03-10T19:13:34.541Z,8.82
2023-03-10T19:16:08.457Z,11.85
2023-03-10T19:18:35.905Z,9.93
2023-03-10T19:21:03.621Z,8.30
2023-03-10T19:23:30.856Z,10.60
2023-03-10T19:25:58.131Z,10.52
2023-03-10T19:28:25.174Z,10.65
2023-03-10T19:30:52.186Z,8.98
2023-03-10T19:33:19.331Z,8.60
2023-03-10T19:35:46.289Z,8.85
2023-03-10T19:38:13.372Z,8.05
2023-03-10T19:40:40.347Z,8.00
2023-03-10T19:43:07.349Z,7.63
2023-03-10T19:45:34.338Z,7.38
2023-03-10T19:48:01.355Z,7.38
2023-03-10T19:50:28.524Z,6.65
2023-03-10T19:52:55.535Z,6.78
2023-03-10T19:55:25.125Z,7.15
2023-03-10T19:57:55.782Z,7.95
2023-03-10T20:00:31.208Z,6.88
2023-03-10T20:02:58.595Z,7.63
2023-03-10T20:05:26.754Z,11.60
2023-03-10T20:07:54.196Z,9.35
2023-03-10T20:10:21.242Z,8.25
2023-03-10T20:12:48.361Z,8.55
2023-03-10T20:15:17.072Z,8.55
2023-03-10T20:17:44.193Z,8.55
2023-03-10T20:20:13.382Z,7.68
2023-03-10T20:22:43.589Z,8.57
2023-03-10T20:25:14.252Z,8.10
2023-03-10T20:27:41.582Z,8.68
2023-03-10T20:30:14.356Z,8.63
2023-03-10T20:32:41.632Z,9.40
2023-03-10T20:35:09.100Z,9.23
2023-03-10T20:37:38.454Z,12.88
2023-03-10T20:40:07.593Z,11.40
2023-03-10T20:42:34.611Z,9.70
2023-03-10T20:45:02.698Z,10.57
2023-03-10T20:47:30.048Z,10.45
2023-03-10T20:49:57.392Z,10.05
2023-03-10T20:52:24.723Z,12.05
2023-03-10T20:54:55.031Z,12.05
2023-03-10T20:57:22.385Z,10.77
2023-03-10T20:59:49.484Z,11.38
2023-03-10T21:02:17.742Z,10.98
2023-03-10T21:04:47.107Z,11.38
2023-03-10T21:07:14.375Z,12.32
2023-03-10T21:09:42.102Z,11.50
2023-03-10T21:12:09.044Z,12.18
2023-03-10T21:14:35.916Z,10.45
2023-03-10T21:17:03.287Z,11.30
2023-03-10T21:19:55.517Z,11.88
2023-03-10T21:22:22.693Z,12.13
2023-03-10T21:24:49.741Z,11.10
2023-03-10T21:27:17.253Z,11.65
2023-03-10T21:29:44.274Z,11.05
2023-03-10T21:32:11.224Z,11.63
2023-03-10T21:34:38.968Z,11.88
2023-03-10T21:37:08.641Z,11.93
2023-03-10T21:39:35.551Z,11.75
2023-03-10T21:42:02.491Z,11.55
2023-03-10T21:44:30.318Z,12.13
2023-03-10T21:46:57.421Z,12.18
2023-03-10T21:49:24.501Z,12.25
2023-03-10T21:51:51.575Z,11.80
2023-03-10T21:54:18.775Z,12.70
2023-03-10T21:56:45.938Z,11.95
2023-03-10T21:59:13.117Z,12.70
2023-03-10T22:01:40.317Z,11.90
2023-03-10T22:04:07.327Z,11.07
2023-03-10T22:06:34.584Z,11.10
2023-03-10T22:09:01.520Z,11.15
2023-03-10T22:14:10.836Z,14.93
2023-03-10T22:16:38.018Z,12.00
2023-03-10T22:19:05.129Z,11.05
2023-03-10T22:21:31.998Z,11.85
2023-03-10T22:23:59.940Z,11.15
2023-03-10T22:26:26.922Z,10.77
2023-03-10T22:28:54.368Z,11.73
2023-03-10T22:31:22.221Z,10.73
2023-03-10T22:33:49.310Z,11.55
2023-03-10T22:36:16.264Z,10.52
2023-03-10T22:38:43.270Z,10.93
2023-03-10T22:41:12.298Z,10.93
2023-03-10T22:43:39.479Z,10.63
2023-03-10T22:46:17.127Z,10.95
2023-03-10T22:48:44.570Z,10.40
2023-03-10T22:51:17.045Z,11.45
2023-03-10T22:53:46.768Z,10.02
2023-03-10T22:56:13.932Z,9.32
2023-03-10T22:58:41.052Z,9.90
2023-03-10T23:01:08.244Z,9.60
2023-03-10T23:03:36.300Z,9.40
2023-03-10T23:06:05.902Z,9.45
2023-03-10T23:08:33.588Z,8.77
2023-03-10T23:11:00.546Z,9.20
2023-03-10T23:13:27.509Z,9.23
2023-03-10T23:15:54.613Z,9.70
2023-03-10T23:18:21.757Z,9.15
2023-03-10T23:20:49.181Z,8.40
2023-03-10T23:23:18.346Z,8.82
2023-03-10T23:25:48.746Z,8.95
2023-03-10T23:28:16.274Z,9.15
2023-03-10T23:30:45.746Z,10.45
2023-03-10T23:33:18.455Z,9.27
2023-03-10T23:35:54.922Z,9.90
2023-03-10T23:38:24.969Z,10.05
2023-03-10T23:40:53.956Z,9.38
2023-03-10T23:43:21.578Z,9.85
2023-03-10T23:45:49.278Z,9.90
2023-03-10T23:48:17.926Z,9.60
2023-03-10T23:50:47.646Z,9.23
2023-03-10T23:53:17.279Z,9.07
2023-03-10T23:55:47.111Z,9.68
2023-03-10T23:58:16.706Z,8.57
